sensor_id;sensor_type;location;lat;lon;timestamp;pressure;altitude;pressure_sealevel;temperature;humidity
20825;BME280;10573;50.936;6.978;2022-08-01T00:01:13;101204.38;;;23.14;58.59
20825;BME280;10573;50.936;6.978;2022-08-01T00:03:39;101198.78;;;23.21;57.97
20825;BME280;10573;50.936;6.978;2022-08-01T00:06:04;101197.28;;;23.11;58.58
20825;BME280;10573;50.936;6.978;2022-08-01T00:08:29;101201.34;;;23.22;58.16
20825;BME280;10573;50.936;6.978;2022-08-01T00:10:55;101188.94;;;23.11;58.61
20825;BME280;10573;50.936;6.978;2022-08-01T00:13:20;101199.84;;;23.26;58.13
20825;BME280;10573;50.936;6.978;2022-08-01T00:15:45;101198.81;;;23.14;58.94
20825;BME280;10573;50.936;6.978;2022-08-01T00:18:11;101201.34;;;23.22;58.87
20825;BME280;10573;50.936;6.978;2022-08-01T00:20:36;101198.09;;;23.32;58.78
20825;BME280;10573;50.936;6.978;2022-08-01T00:23:02;101195.56;;;23.24;58.79
20825;BME280;10573;50.936;6.978;2022-08-01T00:25:27;101196.00;;;23.21;58.67
20825;BME280;10573;50.936;6.978;2022-08-01T00:27:53;101197.78;;;22.82;59.79
20825;BME280;10573;50.936;6.978;2022-08-01T00:30:19;101192.38;;;23.13;59.02
20825;BME280;10573;50.936;6.978;2022-08-01T00:32:44;101188.94;;;23.11;58.67
20825;BME280;10573;50.936;6.978;2022-08-01T00:35:10;101193.47;;;23.19;58.73
20825;BME280;10573;50.936;6.978;2022-08-01T00:37:35;101194.91;;;23.08;58.82
20825;BME280;10573;50.936;6.978;2022-08-01T00:40:00;101201.56;;;23.07;58.93
20825;BME280;10573;50.936;6.978;2022-08-01T00:42:26;101187.03;;;22.99;58.98
20825;BME280;10573;50.936;6.978;2022-08-01T00:44:51;101195.59;;;22.97;59.03
20825;BME280;10573;50.936;6.978;2022-08-01T00:47:17;101186.47;;;22.76;59.54
20825;BME280;10573;50.936;6.978;2022-08-01T00:49:42;101199.91;;;22.79;59.91
20825;BME280;10573;50.936;6.978;2022-08-01T00:52:07;101204.81;;;22.64;61.95
20825;BME280;10573;50.936;6.978;2022-08-01T00:54:33;101194.16;;;22.61;62.08
20825;BME280;10573;50.936;6.978;2022-08-01T00:56:59;101202.28;;;22.56;62.08
20825;BME280;10573;50.936;6.978;2022-08-01T00:59:24;101201.88;;;22.52;61.61
20825;BME280;10573;50.936;6.978;2022-08-01T01:01:50;101207.81;;;22.42;62.35
20825;BME280;10573;50.936;6.978;2022-08-01T01:04:16;101202.50;;;22.48;62.07
20825;BME280;10573;50.936;6.978;2022-08-01T01:12:20;101206.06;;;22.08;65.01
20825;BME280;10573;50.936;6.978;2022-08-01T01:14:58;101203.91;;;22.10;64.79
20825;BME280;10573;50.936;6.978;2022-08-01T01:20:18;101214.53;;;21.79;65.89
20825;BME280;10573;50.936;6.978;2022-08-01T01:30:45;101206.41;;;21.85;65.94
20825;BME280;10573;50.936;6.978;2022-08-01T01:33:11;101208.41;;;22.04;65.50
20825;BME280;10573;50.936;6.978;2022-08-01T01:35:38;101220.16;;;22.20;65.21
20825;BME280;10573;50.936;6.978;2022-08-01T01:38:10;101209.88;;;22.00;65.62
20825;BME280;10573;50.936;6.978;2022-08-01T01:40:37;101216.75;;;22.18;64.91
20825;BME280;10573;50.936;6.978;2022-08-01T01:43:02;101220.34;;;22.05;65.36
20825;BME280;10573;50.936;6.978;2022-08-01T01:45:28;101217.75;;;21.96;65.65
20825;BME280;10573;50.936;6.978;2022-08-01T01:47:54;101213.53;;;22.07;65.39
20825;BME280;10573;50.936;6.978;2022-08-01T01:50:21;101223.75;;;22.00;65.84
20825;BME280;10573;50.936;6.978;2022-08-01T01:52:47;101214.16;;;21.96;65.77
20825;BME280;10573;50.936;6.978;2022-08-01T01:55:14;101219.25;;;21.92;66.13
20825;BME280;10573;50.936;6.978;2022-08-01T01:57:40;101226.75;;;21.99;65.72
20825;BME280;10573;50.936;6.978;2022-08-01T02:00:07;101221.81;;;21.94;66.13
20825;BME280;10573;50.936;6.978;2022-08-01T02:02:34;101216.72;;;22.04;65.84
20825;BME280;10573;50.936;6.978;2022-08-01T02:05:01;101228.03;;;21.96;65.97
20825;BME280;10573;50.936;6.978;2022-08-01T02:07:27;101216.66;;;21.77;66.66
20825;BME280;10573;50.936;6.978;2022-08-01T02:09:53;101222.38;;;21.69;66.83
20825;BME280;10573;50.936;6.978;2022-08-01T02:12:19;101218.31;;;21.65;66.83
20825;BME280;10573;50.936;6.978;2022-08-01T02:14:46;101217.94;;;21.82;66.38
20825;BME280;10573;50.936;6.978;2022-08-01T02:17:15;101203.25;;;21.94;65.92
20825;BME280;10573;50.936;6.978;2022-08-01T02:19:41;101210.72;;;21.94;66.10
20825;BME280;10573;50.936;6.978;2022-08-01T02:22:10;101213.50;;;22.01;66.01
20825;BME280;10573;50.936;6.978;2022-08-01T02:24:49;101206.03;;;21.88;66.35
20825;BME280;10573;50.936;6.978;2022-08-01T02:27:17;101213.44;;;21.81;66.50
20825;BME280;10573;50.936;6.978;2022-08-01T02:29:47;101204.72;;;21.84;66.32
20825;BME280;10573;50.936;6.978;2022-08-01T02:32:17;101211.56;;;21.88;66.19
20825;BME280;10573;50.936;6.978;2022-08-01T02:34:46;101217.50;;;21.85;66.27
20825;BME280;10573;50.936;6.978;2022-08-01T02:37:12;101202.16;;;21.89;66.13
20825;BME280;10573;50.936;6.978;2022-08-01T02:39:38;101212.41;;;21.82;66.25
20825;BME280;10573;50.936;6.978;2022-08-01T02:42:04;101205.81;;;21.96;65.55
20825;BME280;10573;50.936;6.978;2022-08-01T02:44:32;101200.25;;;21.89;66.10
20825;BME280;10573;50.936;6.978;2022-08-01T02:47:00;101203.88;;;21.90;66.06
20825;BME280;10573;50.936;6.978;2022-08-01T02:49:29;101189.63;;;22.06;65.58
20825;BME280;10573;50.936;6.978;2022-08-01T02:51:56;101196.19;;;21.85;66.34
20825;BME280;10573;50.936;6.978;2022-08-01T02:54:22;101198.31;;;21.90;66.05
20825;BME280;10573;50.936;6.978;2022-08-01T02:56:48;101198.78;;;22.00;65.64
20825;BME280;10573;50.936;6.978;2022-08-01T02:59:16;101203.06;;;21.96;66.12
20825;BME280;10573;50.936;6.978;2022-08-01T03:01:42;101202.81;;;21.91;66.24
20825;BME280;10573;50.936;6.978;2022-08-01T03:04:10;101206.22;;;21.79;66.58
20825;BME280;10573;50.936;6.978;2022-08-01T03:06:35;101204.91;;;21.82;66.52
20825;BME280;10573;50.936;6.978;2022-08-01T03:09:02;101210.25;;;21.77;66.51
20825;BME280;10573;50.936;6.978;2022-08-01T03:11:29;101207.66;;;21.75;66.79
20825;BME280;10573;50.936;6.978;2022-08-01T03:13:56;101215.81;;;21.77;66.68
20825;BME280;10573;50.936;6.978;2022-08-01T03:16:22;101215.81;;;21.77;66.68
20825;BME280;10573;50.936;6.978;2022-08-01T03:18:49;101211.47;;;21.61;67.10
20825;BME280;10573;50.936;6.978;2022-08-01T03:21:16;101208.75;;;21.74;66.67
20825;BME280;10573;50.936;6.978;2022-08-01T03:23:44;101211.53;;;21.74;66.54
20825;BME280;10573;50.936;6.978;2022-08-01T03:26:09;101215.78;;;21.70;66.96
20825;BME280;10573;50.936;6.978;2022-08-01T03:28:36;101216.22;;;21.81;66.39
20825;BME280;10573;50.936;6.978;2022-08-01T03:31:02;101215.41;;;21.87;66.13
20825;BME280;10573;50.936;6.978;2022-08-01T03:33:27;101220.41;;;21.56;66.99
20825;BME280;10573;50.936;6.978;2022-08-01T03:35:54;101211.53;;;21.74;66.65
20825;BME280;10573;50.936;6.978;2022-08-01T03:38:22;101216.63;;;21.71;66.91
20825;BME280;10573;50.936;6.978;2022-08-01T03:45:51;101214.88;;;21.63;66.92
20825;BME280;10573;50.936;6.978;2022-08-01T03:48:18;101217.03;;;21.61;67.39
20825;BME280;10573;50.936;6.978;2022-08-01T03:50:50;101216.38;;;21.59;67.21
20825;BME280;10573;50.936;6.978;2022-08-01T03:53:16;101213.63;;;21.72;66.92
20825;BME280;10573;50.936;6.978;2022-08-01T03:55:46;101221.34;;;21.77;66.73
20825;BME280;10573;50.936;6.978;2022-08-01T03:58:12;101226.25;;;21.82;66.66
20825;BME280;10573;50.936;6.978;2022-08-01T04:00:38;101217.06;;;21.74;66.66
20825;BME280;10573;50.936;6.978;2022-08-01T04:03:04;101218.75;;;21.75;66.88
20825;BME280;10573;50.936;6.978;2022-08-01T04:05:30;101222.03;;;21.92;66.20
20825;BME280;10573;50.936;6.978;2022-08-01T04:07:56;101221.41;;;21.97;66.18
20825;BME280;10573;50.936;6.978;2022-08-01T04:10:25;101211.81;;;21.93;66.26
20825;BME280;10573;50.936;6.978;2022-08-01T04:12:50;101222.25;;;21.91;66.18
20825;BME280;10573;50.936;6.978;2022-08-01T04:15:16;101212.84;;;21.92;66.35
20825;BME280;10573;50.936;6.978;2022-08-01T04:17:41;101213.91;;;21.91;66.40
20825;BME280;10573;50.936;6.978;2022-08-01T04:20:07;101217.50;;;21.85;66.86
20825;BME280;10573;50.936;6.978;2022-08-01T04:22:33;101216.47;;;21.92;66.64
20825;BME280;10573;50.936;6.978;2022-08-01T04:24:58;101217.75;;;21.96;66.22
20825;BME280;10573;50.936;6.978;2022-08-01T04:27:29;101224.59;;;22.01;66.27
20825;BME280;10573;50.936;6.978;2022-08-01T04:29:56;101226.97;;;21.97;66.57
20825;BME280;10573;50.936;6.978;2022-08-01T04:32:23;101232.09;;;22.00;66.54
20825;BME280;10573;50.936;6.978;2022-08-01T04:34:50;101233.75;;;21.81;67.04
20825;BME280;10573;50.936;6.978;2022-08-01T04:37:16;101234.97;;;21.72;67.56
20825;BME280;10573;50.936;6.978;2022-08-01T04:39:42;101241.00;;;21.89;67.22
20825;BME280;10573;50.936;6.978;2022-08-01T04:42:08;101239.53;;;21.93;66.66
20825;BME280;10573;50.936;6.978;2022-08-01T04:44:33;101241.88;;;21.96;67.05
20825;BME280;10573;50.936;6.978;2022-08-01T04:46:59;101244.84;;;21.88;67.24
20825;BME280;10573;50.936;6.978;2022-08-01T04:49:26;101252.91;;;21.76;67.71
20825;BME280;10573;50.936;6.978;2022-08-01T04:51:52;101254.22;;;21.87;67.28
20825;BME280;10573;50.936;6.978;2022-08-01T04:54:22;101252.97;;;21.89;67.21
20825;BME280;10573;50.936;6.978;2022-08-01T04:56:47;101257.47;;;21.97;67.03
20825;BME280;10573;50.936;6.978;2022-08-01T04:59:13;101255.53;;;21.91;67.18
20825;BME280;10573;50.936;6.978;2022-08-01T05:01:57;101258.09;;;21.99;67.18
20825;BME280;10573;50.936;6.978;2022-08-01T05:04:22;101261.09;;;21.98;67.47
20825;BME280;10573;50.936;6.978;2022-08-01T05:06:48;101267.50;;;22.05;67.31
20825;BME280;10573;50.936;6.978;2022-08-01T05:09:13;101261.94;;;21.98;67.41
20825;BME280;10573;50.936;6.978;2022-08-01T05:11:38;101261.50;;;21.88;67.75
20825;BME280;10573;50.936;6.978;2022-08-01T05:14:04;101262.78;;;21.85;67.94
20825;BME280;10573;50.936;6.978;2022-08-01T05:16:29;101259.56;;;21.88;67.89
20825;BME280;10573;50.936;6.978;2022-08-01T05:18:54;101267.44;;;21.85;67.92
20825;BME280;10573;50.936;6.978;2022-08-01T05:21:19;101261.75;;;21.93;67.55
20825;BME280;10573;50.936;6.978;2022-08-01T05:23:45;101268.75;;;21.89;67.65
20825;BME280;10573;50.936;6.978;2022-08-01T05:26:12;101264.50;;;21.93;67.65
20825;BME280;10573;50.936;6.978;2022-08-01T05:28:38;101275.22;;;22.03;67.48
20825;BME280;10573;50.936;6.978;2022-08-01T05:31:04;101274.34;;;22.09;67.02
20825;BME280;10573;50.936;6.978;2022-08-01T05:33:29;101273.50;;;22.08;66.95
20825;BME280;10573;50.936;6.978;2022-08-01T05:35:54;101278.97;;;21.82;67.77
20825;BME280;10573;50.936;6.978;2022-08-01T05:38:19;101279.47;;;22.05;67.36
20825;BME280;10573;50.936;6.978;2022-08-01T05:40:45;101282.44;;;21.97;67.78
20825;BME280;10573;50.936;6.978;2022-08-01T05:43:10;101283.09;;;22.06;67.89
20825;BME280;10573;50.936;6.978;2022-08-01T05:45:36;101287.09;;;21.90;69.49
20825;BME280;10573;50.936;6.978;2022-08-01T05:48:01;101284.63;;;21.60;71.35
20825;BME280;10573;50.936;6.978;2022-08-01T05:50:27;101274.19;;;21.69;72.28
20825;BME280;10573;50.936;6.978;2022-08-01T05:52:52;101280.06;;;21.52;72.18
20825;BME280;10573;50.936;6.978;2022-08-01T05:55:17;101282.72;;;21.67;71.59
20825;BME280;10573;50.936;6.978;2022-08-01T05:57:43;101286.63;;;21.73;72.07
20825;BME280;10573;50.936;6.978;2022-08-01T06:00:08;101285.72;;;21.66;72.08
20825;BME280;10573;50.936;6.978;2022-08-01T06:02:38;101290.00;;;21.68;71.28
20825;BME280;10573;50.936;6.978;2022-08-01T06:05:04;101283.84;;;21.73;71.19
20825;BME280;10573;50.936;6.978;2022-08-01T06:07:30;101291.28;;;21.72;71.61
20825;BME280;10573;50.936;6.978;2022-08-01T06:09:55;101283.41;;;21.69;71.61
20825;BME280;10573;50.936;6.978;2022-08-01T06:12:20;101284.91;;;21.72;71.27
20825;BME280;10573;50.936;6.978;2022-08-01T06:14:45;101282.56;;;21.75;71.75
20825;BME280;10573;50.936;6.978;2022-08-01T06:17:11;101268.75;;;21.89;71.14
20825;BME280;10573;50.936;6.978;2022-08-01T06:19:36;101279.06;;;22.08;69.70
20825;BME280;10573;50.936;6.978;2022-08-01T06:22:01;101278.66;;;22.18;69.74
20825;BME280;10573;50.936;6.978;2022-08-01T06:24:27;101285.09;;;22.25;69.25
20825;BME280;10573;50.936;6.978;2022-08-01T06:26:52;101290.66;;;22.32;68.97
20825;BME280;10573;50.936;6.978;2022-08-01T06:29:17;101282.59;;;22.44;68.48
20825;BME280;10573;50.936;6.978;2022-08-01T06:31:43;101285.16;;;22.45;67.86
20825;BME280;10573;50.936;6.978;2022-08-01T06:34:08;101277.03;;;22.37;67.81
20825;BME280;10573;50.936;6.978;2022-08-01T06:36:33;101277.88;;;22.44;68.00
20825;BME280;10573;50.936;6.978;2022-08-01T06:38:59;101277.91;;;22.51;67.13
20825;BME280;10573;50.936;6.978;2022-08-01T06:41:24;101293.88;;;21.81;68.99
20825;BME280;10573;50.936;6.978;2022-08-01T06:43:49;101288.78;;;22.39;67.39
20825;BME280;10573;50.936;6.978;2022-08-01T06:46:14;101289.44;;;22.41;67.26
20825;BME280;10573;50.936;6.978;2022-08-01T06:48:40;101286.25;;;22.65;65.69
20825;BME280;10573;50.936;6.978;2022-08-01T06:51:05;101283.91;;;22.61;65.51
20825;BME280;10573;50.936;6.978;2022-08-01T06:53:45;101285.59;;;22.83;65.81
20825;BME280;10573;50.936;6.978;2022-08-01T06:56:10;101284.31;;;22.99;65.79
20825;BME280;10573;50.936;6.978;2022-08-01T06:58:36;101283.91;;;22.95;65.40
20825;BME280;10573;50.936;6.978;2022-08-01T07:01:02;101284.31;;;22.78;65.18
20825;BME280;10573;50.936;6.978;2022-08-01T07:03:28;101289.03;;;23.05;64.45
20825;BME280;10573;50.936;6.978;2022-08-01T07:05:54;101283.47;;;22.91;63.85
20825;BME280;10573;50.936;6.978;2022-08-01T07:08:19;101287.16;;;22.10;65.83
20825;BME280;10573;50.936;6.978;2022-08-01T07:10:45;101285.59;;;22.69;64.90
20825;BME280;10573;50.936;6.978;2022-08-01T07:13:11;101294.16;;;22.88;64.60
20825;BME280;10573;50.936;6.978;2022-08-01T07:15:37;101292.44;;;23.00;64.54
20825;BME280;10573;50.936;6.978;2022-08-01T07:18:02;101290.91;;;23.04;64.17
20825;BME280;10573;50.936;6.978;2022-08-01T07:20:29;101288.16;;;22.91;63.97
20825;BME280;10573;50.936;6.978;2022-08-01T07:22:54;101297.59;;;23.17;63.42
20825;BME280;10573;50.936;6.978;2022-08-01T07:25:19;101284.31;;;22.92;63.87
20825;BME280;10573;50.936;6.978;2022-08-01T07:27:45;101286.47;;;22.90;64.06
20825;BME280;10573;50.936;6.978;2022-08-01T07:30:11;101287.75;;;22.94;63.54
20825;BME280;10573;50.936;6.978;2022-08-01T07:32:36;101287.09;;;23.25;62.71
20825;BME280;10573;50.936;6.978;2022-08-01T07:35:02;101289.88;;;23.19;63.07
20825;BME280;10573;50.936;6.978;2022-08-01T07:37:27;101289.88;;;23.25;62.32
20825;BME280;10573;50.936;6.978;2022-08-01T07:39:53;101293.91;;;23.36;61.44
20825;BME280;10573;50.936;6.978;2022-08-01T07:42:18;101292.38;;;23.47;60.71
20825;BME280;10573;50.936;6.978;2022-08-01T07:44:43;101304.38;;;23.48;60.49
20825;BME280;10573;50.936;6.978;2022-08-01T07:47:09;101299.59;;;23.68;59.97
20825;BME280;10573;50.936;6.978;2022-08-01T07:49:34;101304.13;;;23.56;60.41
20825;BME280;10573;50.936;6.978;2022-08-01T07:52:00;101298.56;;;23.56;60.34
20825;BME280;10573;50.936;6.978;2022-08-01T07:54:25;101303.41;;;23.74;59.69
20825;BME280;10573;50.936;6.978;2022-08-01T07:56:52;101312.00;;;23.72;59.42
20825;BME280;10573;50.936;6.978;2022-08-01T07:59:18;101308.13;;;23.80;59.92
20825;BME280;10573;50.936;6.978;2022-08-01T08:01:48;101306.63;;;23.77;59.29
20825;BME280;10573;50.936;6.978;2022-08-01T08:04:13;101299.91;;;23.26;60.21
20825;BME280;10573;50.936;6.978;2022-08-01T08:06:39;101301.56;;;23.61;59.75
20825;BME280;10573;50.936;6.978;2022-08-01T08:09:06;101307.97;;;24.20;58.90
20825;BME280;10573;50.936;6.978;2022-08-01T08:11:31;101304.53;;;24.18;59.05
20825;BME280;10573;50.936;6.978;2022-08-01T08:13:57;101299.22;;;24.49;57.68
20825;BME280;10573;50.936;6.978;2022-08-01T08:16:22;101296.34;;;24.30;58.18
20825;BME280;10573;50.936;6.978;2022-08-01T08:18:48;101298.13;;;24.18;58.25
20825;BME280;10573;50.936;6.978;2022-08-01T08:21:13;101301.41;;;24.40;57.93
20825;BME280;10573;50.936;6.978;2022-08-01T08:23:38;101301.31;;;24.53;57.11
20825;BME280;10573;50.936;6.978;2022-08-01T08:26:22;101298.31;;;24.87;56.17
20825;BME280;10573;50.936;6.978;2022-08-01T08:28:48;101307.63;;;24.03;58.09
20825;BME280;10573;50.936;6.978;2022-08-01T08:31:14;101314.59;;;24.58;57.06
20825;BME280;10573;50.936;6.978;2022-08-01T08:33:39;101311.59;;;24.21;57.49
20825;BME280;10573;50.936;6.978;2022-08-01T08:36:04;101309.16;;;24.38;58.07
20825;BME280;10573;50.936;6.978;2022-08-01T08:38:30;101314.59;;;24.58;56.80
20825;BME280;10573;50.936;6.978;2022-08-01T08:40:55;101315.63;;;24.25;57.41
20825;BME280;10573;50.936;6.978;2022-08-01T08:43:21;101308.66;;;24.48;56.43
20825;BME280;10573;50.936;6.978;2022-08-01T08:45:46;101316.22;;;24.40;56.57
20825;BME280;10573;50.936;6.978;2022-08-01T08:48:15;101315.66;;;24.63;56.12
20825;BME280;10573;50.936;6.978;2022-08-01T08:50:41;101318.72;;;24.49;56.48
20825;BME280;10573;50.936;6.978;2022-08-01T08:53:06;101321.44;;;24.62;56.36
20825;BME280;10573;50.936;6.978;2022-08-01T08:55:34;101322.50;;;24.61;56.01
20825;BME280;10573;50.936;6.978;2022-08-01T08:58:00;101320.09;;;24.71;56.18
20825;BME280;10573;50.936;6.978;2022-08-01T09:00:30;101322.69;;;24.66;55.73
20825;BME280;10573;50.936;6.978;2022-08-01T09:02:56;101329.13;;;24.28;56.57
20825;BME280;10573;50.936;6.978;2022-08-01T09:05:22;101326.19;;;24.48;55.87
20825;BME280;10573;50.936;6.978;2022-08-01T09:07:50;101322.28;;;24.24;56.05
20825;BME280;10573;50.936;6.978;2022-08-01T09:10:16;101324.81;;;24.32;56.05
20825;BME280;10573;50.936;6.978;2022-08-01T09:13:00;101321.13;;;24.38;55.86
20825;BME280;10573;50.936;6.978;2022-08-01T09:15:42;101329.44;;;24.84;54.36
20825;BME280;10573;50.936;6.978;2022-08-01T09:18:09;101329.50;;;25.02;54.32
20825;BME280;10573;50.936;6.978;2022-08-01T09:20:50;101336.13;;;24.76;54.46
20825;BME280;10573;50.936;6.978;2022-08-01T09:23:31;101336.56;;;25.05;54.31
20825;BME280;10573;50.936;6.978;2022-08-01T09:25:57;101337.50;;;24.92;54.38
20825;BME280;10573;50.936;6.978;2022-08-01T09:28:27;101337.16;;;24.82;54.97
20825;BME280;10573;50.936;6.978;2022-08-01T09:30:52;101333.88;;;24.59;55.35
20825;BME280;10573;50.936;6.978;2022-08-01T09:33:18;101342.38;;;24.33;56.12
20825;BME280;10573;50.936;6.978;2022-08-01T09:35:43;101331.94;;;24.28;56.95
20825;BME280;10573;50.936;6.978;2022-08-01T09:38:23;101332.31;;;24.70;55.80
20825;BME280;10573;50.936;6.978;2022-08-01T09:43:19;101334.72;;;24.28;55.38
20825;BME280;10573;50.936;6.978;2022-08-01T09:45:45;101342.59;;;24.31;55.85
20825;BME280;10573;50.936;6.978;2022-08-01T09:48:10;101342.56;;;24.38;55.65
20825;BME280;10573;50.936;6.978;2022-08-01T09:50:41;101344.72;;;24.74;55.09
20825;BME280;10573;50.936;6.978;2022-08-01T09:53:08;101341.84;;;25.13;53.68
20825;BME280;10573;50.936;6.978;2022-08-01T09:55:33;101345.91;;;25.61;52.10
20825;BME280;10573;50.936;6.978;2022-08-01T09:57:58;101332.47;;;25.26;52.81
20825;BME280;10573;50.936;6.978;2022-08-01T10:00:26;101341.56;;;26.21;50.43
20825;BME280;10573;50.936;6.978;2022-08-01T10:02:51;101340.00;;;26.25;50.21
20825;BME280;10573;50.936;6.978;2022-08-01T10:05:16;101338.47;;;26.10;50.21
20825;BME280;10573;50.936;6.978;2022-08-01T10:07:58;101333.66;;;26.18;50.44
20825;BME280;10573;50.936;6.978;2022-08-01T10:10:24;101333.19;;;26.93;48.23
20825;BME280;10573;50.936;6.978;2022-08-01T10:12:53;101332.22;;;26.88;48.74
20825;BME280;10573;50.936;6.978;2022-08-01T10:15:20;101333.63;;;26.48;48.96
20825;BME280;10573;50.936;6.978;2022-08-01T10:17:55;101328.22;;;27.19;47.60
20825;BME280;10573;50.936;6.978;2022-08-01T10:20:22;101321.53;;;27.68;46.78
20825;BME280;10573;50.936;6.978;2022-08-01T10:22:48;101314.94;;;28.26;45.68
20825;BME280;10573;50.936;6.978;2022-08-01T10:25:14;101306.41;;;27.80;45.27
20825;BME280;10573;50.936;6.978;2022-08-01T10:27:43;101315.44;;;27.23;45.89
20825;BME280;10573;50.936;6.978;2022-08-01T10:30:14;101310.22;;;28.44;44.47
20825;BME280;10573;50.936;6.978;2022-08-01T10:32:43;101314.78;;;28.33;44.01
20825;BME280;10573;50.936;6.978;2022-08-01T10:35:10;101315.41;;;28.52;43.50
20825;BME280;10573;50.936;6.978;2022-08-01T10:37:42;101322.94;;;28.06;44.44
20825;BME280;10573;50.936;6.978;2022-08-01T10:40:07;101322.66;;;27.43;45.26
20825;BME280;10573;50.936;6.978;2022-08-01T10:42:33;101318.38;;;27.64;44.86
20825;BME280;10573;50.936;6.978;2022-08-01T10:44:59;101321.91;;;26.58;46.90
20825;BME280;10573;50.936;6.978;2022-08-01T10:47:30;101322.16;;;26.26;47.84
20825;BME280;10573;50.936;6.978;2022-08-01T10:50:13;101319.69;;;25.99;48.57
20825;BME280;10573;50.936;6.978;2022-08-01T10:52:41;101317.22;;;25.54;50.54
20825;BME280;10573;50.936;6.978;2022-08-01T10:55:07;101315.81;;;25.82;49.30
20825;BME280;10573;50.936;6.978;2022-08-01T10:57:44;101312.41;;;25.98;48.45
20825;BME280;10573;50.936;6.978;2022-08-01T11:00:15;101313.22;;;26.90;46.54
20825;BME280;10573;50.936;6.978;2022-08-01T11:02:41;101304.69;;;27.79;44.70
20825;BME280;10573;50.936;6.978;2022-08-01T11:05:21;101308.97;;;28.52;42.92
20825;BME280;10573;50.936;6.978;2022-08-01T11:07:57;101306.97;;;28.64;42.57
20825;BME280;10573;50.936;6.978;2022-08-01T11:10:39;101301.22;;;28.59;42.67
20825;BME280;10573;50.936;6.978;2022-08-01T11:13:05;101297.97;;;28.33;44.01
20825;BME280;10573;50.936;6.978;2022-08-01T11:15:35;101306.22;;;28.69;42.94
20825;BME280;10573;50.936;6.978;2022-08-01T11:18:03;101302.41;;;28.63;42.21
20825;BME280;10573;50.936;6.978;2022-08-01T11:20:33;101297.72;;;28.35;43.03
20825;BME280;10573;50.936;6.978;2022-08-01T11:30:45;101291.84;;;27.67;43.78
20825;BME280;10573;50.936;6.978;2022-08-01T11:33:11;101301.69;;;26.74;45.52
20825;BME280;10573;50.936;6.978;2022-08-01T11:35:38;101298.22;;;27.38;44.48
20825;BME280;10573;50.936;6.978;2022-08-01T11:38:26;101291.72;;;27.61;43.70
20825;BME280;10573;50.936;6.978;2022-08-01T11:41:35;101281.50;;;27.67;43.96
20825;BME280;10573;50.936;6.978;2022-08-01T11:44:01;101274.50;;;29.80;40.73
20825;BME280;10573;50.936;6.978;2022-08-01T11:54:51;101277.38;;;29.07;42.02
20825;BME280;10573;50.936;6.978;2022-08-01T11:57:20;101284.63;;;28.69;41.94
20825;BME280;10573;50.936;6.978;2022-08-01T11:59:50;101280.97;;;28.23;41.71
20825;BME280;10573;50.936;6.978;2022-08-01T12:02:16;101276.66;;;29.51;39.77
20825;BME280;10573;50.936;6.978;2022-08-01T12:04:46;101266.94;;;29.59;37.80
20825;BME280;10573;50.936;6.978;2022-08-01T12:07:13;101276.53;;;30.94;36.20
20825;BME280;10573;50.936;6.978;2022-08-01T12:09:38;101274.78;;;30.01;37.24
20825;BME280;10573;50.936;6.978;2022-08-01T12:12:03;101267.06;;;31.54;34.43
20825;BME280;10573;50.936;6.978;2022-08-01T12:14:29;101265.31;;;31.00;34.82
20825;BME280;10573;50.936;6.978;2022-08-01T12:16:55;101272.69;;;31.06;35.99
20825;BME280;10573;50.936;6.978;2022-08-01T12:19:21;101274.91;;;30.11;35.89
20825;BME280;10573;50.936;6.978;2022-08-01T12:24:33;101288.38;;;28.92;39.09
20825;BME280;10573;50.936;6.978;2022-08-01T12:26:58;101281.94;;;28.45;41.04
20825;BME280;10573;50.936;6.978;2022-08-01T12:29:34;101285.56;;;28.29;42.52
20825;BME280;10573;50.936;6.978;2022-08-01T12:32:00;101276.16;;;28.06;41.95
20825;BME280;10573;50.936;6.978;2022-08-01T12:34:26;101287.72;;;27.34;43.52
20825;BME280;10573;50.936;6.978;2022-08-01T12:36:54;101279.31;;;27.69;43.69
20825;BME280;10573;50.936;6.978;2022-08-01T12:39:19;101296.63;;;28.36;41.75
20825;BME280;10573;50.936;6.978;2022-08-01T12:41:45;101289.53;;;28.62;40.33
20825;BME280;10573;50.936;6.978;2022-08-01T12:44:13;101285.56;;;29.26;39.96
20825;BME280;10573;50.936;6.978;2022-08-01T12:46:42;101287.16;;;29.61;37.92
20825;BME280;10573;50.936;6.978;2022-08-01T12:49:07;101279.63;;;30.60;35.68
20825;BME280;10573;50.936;6.978;2022-08-01T12:51:33;101281.22;;;29.79;36.25
20825;BME280;10573;50.936;6.978;2022-08-01T12:53:59;101276.69;;;29.34;37.00
20825;BME280;10573;50.936;6.978;2022-08-01T12:56:30;101279.56;;;29.39;37.57
20825;BME280;10573;50.936;6.978;2022-08-01T12:58:56;101279.06;;;30.36;36.76
20825;BME280;10573;50.936;6.978;2022-08-01T13:01:24;101274.94;;;30.71;34.92
20825;BME280;10573;50.936;6.978;2022-08-01T13:03:59;101270.06;;;31.85;32.76
20825;BME280;10573;50.936;6.978;2022-08-01T13:06:27;101277.25;;;32.34;32.71
20825;BME280;10573;50.936;6.978;2022-08-01T13:08:53;101285.69;;;32.18;33.82
20825;BME280;10573;50.936;6.978;2022-08-01T13:11:18;101276.72;;;32.42;32.77
20825;BME280;10573;50.936;6.978;2022-08-01T13:13:45;101270.88;;;31.27;33.73
20825;BME280;10573;50.936;6.978;2022-08-01T13:16:16;101281.69;;;30.70;35.92
20825;BME280;10573;50.936;6.978;2022-08-01T13:18:48;101282.06;;;29.58;37.58
20825;BME280;10573;50.936;6.978;2022-08-01T13:21:18;101278.81;;;29.44;38.43
20825;BME280;10573;50.936;6.978;2022-08-01T13:26:37;101274.75;;;29.18;38.02
20825;BME280;10573;50.936;6.978;2022-08-01T13:29:03;101275.00;;;29.33;37.83
20825;BME280;10573;50.936;6.978;2022-08-01T13:31:32;101274.09;;;29.10;38.59
20825;BME280;10573;50.936;6.978;2022-08-01T13:33:58;101268.13;;;28.90;38.27
20825;BME280;10573;50.936;6.978;2022-08-01T13:36:23;101278.34;;;28.79;38.19